Time;durP1;ratioP1;P1;durP2;ratioP2;P2;SDS_P1;SDS_P2;PMS_P1;PMS_P2;Temp;Humidity;BMP_temperature;BMP_pressure;BME280_temperature;BME280_humidity;BME280_pressure;Samples;Min_cycle;Max_cycle;Signal;HPM_P1;HPM_P2
2022/06/09 00:01:18;;;;;;;;;;;20.50;65.60;;;;;;5017095;28;19909;-87
2022/06/09 00:03:45;;;;;;;;;;;20.50;65.80;;;;;;5034391;28;19932;-87
2022/06/09 00:06:11;;;;;;;;;;;20.50;65.80;;;;;;5034590;28;19927;-87
2022/06/09 00:08:38;;;;;;;;;;;20.50;65.80;;;;;;5034220;28;19924;-87
2022/06/09 00:11:05;;;;;;;;;;;20.60;65.60;;;;;;5016722;28;19916;-87
2022/06/09 00:13:31;;;;;;;;;;;20.50;65.60;;;;;;5033860;28;19917;-86
2022/06/09 00:15:57;;;;;;;;;;;20.50;65.40;;;;;;5016733;28;19956;-87
2022/06/09 00:18:22;;;;;;;;;;;20.50;65.50;;;;;;5033970;28;19913;-87
2022/06/09 00:20:48;;;;;;;;;;;20.50;65.70;;;;;;5017082;28;19910;-87
2022/06/09 00:23:16;;;;;;;;;;;20.60;65.70;;;;;;5034807;28;19917;-87
2022/06/09 00:25:42;;;;;;;;;;;20.60;65.50;;;;;;5035220;28;19913;-87
2022/06/09 00:28:07;;;;;;;;;;;20.60;65.70;;;;;;5016743;28;19936;-87
2022/06/09 00:30:33;;;;;;;;;;;20.60;65.70;;;;;;5033117;28;19920;-87
2022/06/09 00:32:58;;;;;;;;;;;20.70;65.70;;;;;;5034529;28;20360;-87
2022/06/09 00:35:24;;;;;;;;;;;20.70;65.50;;;;;;5034221;28;19952;-87
2022/06/09 00:37:49;;;;;;;;;;;20.70;65.60;;;;;;5034208;28;19917;-87
2022/06/09 00:40:15;;;;;;;;;;;20.70;65.60;;;;;;5034518;28;19913;-87
2022/06/09 00:42:41;;;;;;;;;;;20.80;65.50;;;;;;5016578;28;19913;-86
2022/06/09 00:45:23;;;;;;;;;;;20.70;65.50;;;;;;5015398;28;19952;-87
2022/06/09 00:47:50;;;;;;;;;;;20.80;65.40;;;;;;5016983;28;19913;-86
2022/06/09 00:50:17;;;;;;;;;;;20.70;65.70;;;;;;5015714;28;20399;-87
2022/06/09 00:52:45;;;;;;;;;;;20.80;65.70;;;;;;5015841;28;19964;-87
2022/06/09 00:55:13;;;;;;;;;;;20.80;65.60;;;;;;5033728;28;20008;-87
2022/06/09 00:57:43;;;;;;;;;;;20.80;65.60;;;;;;5033364;28;19917;-87
2022/06/09 01:00:10;;;;;;;;;;;20.80;65.60;;;;;;5015907;28;19909;-87
2022/06/09 01:02:37;;;;;;;;;;;20.80;65.60;;;;;;5015891;28;20483;-87
2022/06/09 01:05:04;;;;;;;;;;;20.80;65.60;;;;;;5015504;28;19916;-87
2022/06/09 01:07:33;;;;;;;;;;;20.80;65.50;;;;;;5015825;28;19991;-87
2022/06/09 01:09:58;;;;;;;;;;;20.80;65.40;;;;;;5033630;28;19909;-87
2022/06/09 01:12:28;;;;;;;;;;;20.80;65.40;;;;;;5031772;28;19922;-87
2022/06/09 01:14:57;;;;;;;;;;;20.80;65.20;;;;;;5032643;28;19921;-87
2022/06/09 01:17:26;;;;;;;;;;;20.80;65.40;;;;;;5037026;28;19917;-87
2022/06/09 01:20:00;;;;;;;;;;;20.80;65.50;;;;;;5018709;28;19941;-87
2022/06/09 01:22:42;;;;;;;;;;;20.80;65.40;;;;;;5036665;28;19917;-87
2022/06/09 01:25:23;;;;;;;;;;;20.70;65.50;;;;;;5018670;28;20377;-87
2022/06/09 01:28:06;;;;;;;;;;;20.70;65.30;;;;;;5036927;28;20389;-87
2022/06/09 01:30:41;;;;;;;;;;;20.60;65.30;;;;;;5018367;28;19913;-87
2022/06/09 01:33:21;;;;;;;;;;;20.60;65.50;;;;;;5036605;28;19921;-87
2022/06/09 01:35:50;;;;;;;;;;;20.60;65.40;;;;;;5018664;28;19920;-87
2022/06/09 01:38:15;;;;;;;;;;;20.60;65.40;;;;;;5036377;28;19924;-87
2022/06/09 01:40:41;;;;;;;;;;;20.60;65.40;;;;;;5018697;28;19913;-87
2022/06/09 01:43:07;;;;;;;;;;;20.50;65.40;;;;;;5017611;28;19924;-87
2022/06/09 01:45:38;;;;;;;;;;;20.60;65.50;;;;;;5018167;28;20008;-87
2022/06/09 01:48:12;;;;;;;;;;;20.60;65.50;;;;;;5035966;28;19913;-87
2022/06/09 01:50:53;;;;;;;;;;;20.60;65.50;;;;;;5036381;28;19917;-87
2022/06/09 01:53:28;;;;;;;;;;;20.60;65.50;;;;;;5018184;28;20250;-87
2022/06/09 01:55:56;;;;;;;;;;;20.50;65.60;;;;;;5036211;28;19909;-87
2022/06/09 01:58:24;;;;;;;;;;;20.60;65.60;;;;;;5018322;28;19917;-87
2022/06/09 02:00:50;;;;;;;;;;;20.60;65.60;;;;;;5018293;28;19963;-87
2022/06/09 02:03:21;;;;;;;;;;;20.60;65.60;;;;;;5035839;28;19921;-87
2022/06/09 02:05:49;;;;;;;;;;;20.70;65.70;;;;;;5018188;28;20365;-87
2022/06/09 02:08:16;;;;;;;;;;;20.60;65.70;;;;;;5017611;28;19923;-88
2022/06/09 02:10:43;;;;;;;;;;;20.70;65.70;;;;;;5035530;28;20243;-87
2022/06/09 02:13:13;;;;;;;;;;;20.70;65.70;;;;;;5018162;28;20353;-87
2022/06/09 02:15:40;;;;;;;;;;;20.70;65.80;;;;;;5035755;28;20404;-87
2022/06/09 02:18:08;;;;;;;;;;;20.70;65.80;;;;;;5036287;28;20012;-87
2022/06/09 02:20:34;;;;;;;;;;;20.80;65.70;;;;;;5035809;28;19932;-87
2022/06/09 02:23:00;;;;;;;;;;;20.80;65.70;;;;;;5017957;28;19959;-87
2022/06/09 02:25:25;;;;;;;;;;;20.80;65.70;;;;;;5036550;28;19916;-86
2022/06/09 02:27:51;;;;;;;;;;;20.80;65.50;;;;;;5016178;28;19960;-87
2022/06/09 02:30:16;;;;;;;;;;;20.80;65.70;;;;;;5017752;28;19917;-87
2022/06/09 02:32:42;;;;;;;;;;;20.80;65.50;;;;;;5035642;28;19925;-87
2022/06/09 02:35:07;;;;;;;;;;;20.80;65.60;;;;;;5035458;28;19955;-87
2022/06/09 02:37:33;;;;;;;;;;;20.80;65.60;;;;;;5017714;28;19917;-87
2022/06/09 02:39:58;;;;;;;;;;;20.90;65.60;;;;;;5034966;28;20304;-87
2022/06/09 02:42:24;;;;;;;;;;;20.80;65.40;;;;;;5035698;28;19921;-87
2022/06/09 02:44:49;;;;;;;;;;;20.80;65.50;;;;;;5018036;28;19919;-87
2022/06/09 02:47:15;;;;;;;;;;;20.80;65.40;;;;;;5035805;28;19970;-87
2022/06/09 02:49:41;;;;;;;;;;;20.80;65.40;;;;;;5017758;28;20273;-87
2022/06/09 02:52:07;;;;;;;;;;;20.80;65.40;;;;;;5035717;28;19970;-87
2022/06/09 02:54:32;;;;;;;;;;;20.80;65.40;;;;;;5035045;28;19913;-87
2022/06/09 02:56:58;;;;;;;;;;;20.80;65.40;;;;;;5017100;28;19956;-87
2022/06/09 02:59:23;;;;;;;;;;;20.80;65.30;;;;;;5017055;28;20383;-87
2022/06/09 03:01:49;;;;;;;;;;;20.80;65.30;;;;;;5035458;28;19917;-87
2022/06/09 03:04:14;;;;;;;;;;;20.80;65.40;;;;;;5035416;28;20365;-87
2022/06/09 03:06:40;;;;;;;;;;;20.70;65.50;;;;;;5017623;28;20278;-87
2022/06/09 03:09:05;;;;;;;;;;;20.70;65.50;;;;;;5016945;28;19914;-87
2022/06/09 03:11:31;;;;;;;;;;;20.70;65.50;;;;;;5017495;28;19924;-87
2022/06/09 03:13:56;;;;;;;;;;;20.70;65.50;;;;;;5017461;28;19925;-87
2022/06/09 03:16:21;;;;;;;;;;;20.70;65.50;;;;;;5034610;28;20316;-88
2022/06/09 03:18:47;;;;;;;;;;;20.70;65.60;;;;;;5016944;28;20529;-87
2022/06/09 03:21:13;;;;;;;;;;;20.80;65.50;;;;;;5035207;28;19917;-87
2022/06/09 03:23:39;;;;;;;;;;;20.80;65.50;;;;;;5034501;28;19994;-87
2022/06/09 03:26:04;;;;;;;;;;;20.70;65.40;;;;;;5016567;28;20504;-87
2022/06/09 03:28:30;;;;;;;;;;;20.70;65.40;;;;;;5016092;28;19920;-87
2022/06/09 03:30:56;;;;;;;;;;;20.80;65.20;;;;;;5034043;28;19920;-87
2022/06/09 03:33:21;;;;;;;;;;;20.80;65.30;;;;;;5035000;28;19960;-87
2022/06/09 03:35:47;;;;;;;;;;;20.80;65.10;;;;;;5034733;28;20273;-87
2022/06/09 03:38:12;;;;;;;;;;;20.70;65.20;;;;;;5034224;28;19924;-87
2022/06/09 03:40:38;;;;;;;;;;;20.70;65.10;;;;;;5016517;28;19909;-87
2022/06/09 03:43:03;;;;;;;;;;;20.70;65.10;;;;;;5016780;28;19917;-87
2022/06/09 03:45:30;;;;;;;;;;;20.70;65.10;;;;;;5032958;28;19948;-87
2022/06/09 03:47:55;;;;;;;;;;;20.60;64.90;;;;;;5017064;28;20007;-87
2022/06/09 03:50:22;;;;;;;;;;;20.50;65.10;;;;;;5034079;28;20351;-87
2022/06/09 03:52:48;;;;;;;;;;;20.50;65.20;;;;;;4996897;28;20003;-87
2022/06/09 03:55:14;;;;;;;;;;;20.50;65.20;;;;;;5014518;28;19918;-87
2022/06/09 03:57:39;;;;;;;;;;;20.50;65.30;;;;;;5014278;28;20258;-86
2022/06/09 04:00:06;;;;;;;;;;;20.50;65.30;;;;;;5013959;28;19960;-87
2022/06/09 04:02:31;;;;;;;;;;;20.50;65.40;;;;;;5014703;28;19917;-88
2022/06/09 04:04:57;;;;;;;;;;;20.50;65.40;;;;;;4997384;28;19921;-87
2022/06/09 04:07:22;;;;;;;;;;;20.50;65.40;;;;;;5020184;28;19913;-87
2022/06/09 04:09:48;;;;;;;;;;;20.50;65.40;;;;;;5034677;28;19917;-87
2022/06/09 04:12:14;;;;;;;;;;;20.50;65.50;;;;;;5034082;28;19943;-87
2022/06/09 04:14:39;;;;;;;;;;;20.60;65.50;;;;;;5034658;28;20269;-87
2022/06/09 04:17:05;;;;;;;;;;;20.60;65.50;;;;;;5033661;28;19913;-87
2022/06/09 04:19:30;;;;;;;;;;;20.70;65.60;;;;;;5033147;28;20410;-87
2022/06/09 04:21:56;;;;;;;;;;;20.80;65.70;;;;;;5016283;28;20376;-87
2022/06/09 04:24:21;;;;;;;;;;;20.80;65.70;;;;;;5034088;28;20281;-86
2022/06/09 04:26:46;;;;;;;;;;;20.90;65.60;;;;;;5033616;28;19991;-88
2022/06/09 04:29:13;;;;;;;;;;;21.00;65.50;;;;;;5033704;28;19917;-86
2022/06/09 04:31:39;;;;;;;;;;;21.00;65.30;;;;;;5015514;28;19952;-87
2022/06/09 04:34:05;;;;;;;;;;;21.10;65.10;;;;;;5035132;28;20016;-87
2022/06/09 04:36:30;;;;;;;;;;;21.10;65.30;;;;;;5016392;28;20341;-87
2022/06/09 04:38:56;;;;;;;;;;;21.20;65.30;;;;;;5016051;28;19918;-87
2022/06/09 04:41:22;;;;;;;;;;;21.30;65.40;;;;;;5033879;28;19915;-87
2022/06/09 04:43:48;;;;;;;;;;;21.30;65.00;;;;;;5015655;28;19975;-87
2022/06/09 04:46:15;;;;;;;;;;;21.30;65.20;;;;;;5031667;28;19913;-87
2022/06/09 04:48:41;;;;;;;;;;;21.40;65.20;;;;;;5018354;28;19925;-87
2022/06/09 04:51:10;;;;;;;;;;;21.40;65.20;;;;;;4997379;28;19921;-87
2022/06/09 04:53:36;;;;;;;;;;;21.50;65.00;;;;;;5017958;28;20289;-87
2022/06/09 04:56:02;;;;;;;;;;;21.50;64.90;;;;;;5036881;28;19913;-87
2022/06/09 04:58:28;;;;;;;;;;;21.50;64.80;;;;;;5018799;28;19940;-87
2022/06/09 05:00:53;;;;;;;;;;;21.50;64.80;;;;;;5034956;28;19917;-87
2022/06/09 05:03:20;;;;;;;;;;;21.60;64.90;;;;;;5025042;28;20008;-87
2022/06/09 05:05:46;;;;;;;;;;;21.70;65.00;;;;;;5022356;28;19913;-87
2022/06/09 05:08:12;;;;;;;;;;;21.70;65.00;;;;;;5035092;28;20393;-87
2022/06/09 05:10:38;;;;;;;;;;;21.80;64.90;;;;;;5025067;28;19920;-87
2022/06/09 05:13:05;;;;;;;;;;;21.80;64.70;;;;;;5034464;28;20344;-87
2022/06/09 05:15:32;;;;;;;;;;;21.80;64.60;;;;;;5034605;28;19917;-87
2022/06/09 05:17:58;;;;;;;;;;;21.90;64.50;;;;;;5034788;28;20393;-88
2022/06/09 05:20:24;;;;;;;;;;;21.90;64.60;;;;;;5020577;28;19913;-86
2022/06/09 05:22:49;;;;;;;;;;;21.90;64.70;;;;;;5026591;28;20041;-86
2022/06/09 05:25:15;;;;;;;;;;;22.00;64.30;;;;;;5024363;28;19921;-88
2022/06/09 05:27:42;;;;;;;;;;;22.00;64.30;;;;;;5036053;28;19913;-88
2022/06/09 05:30:13;;;;;;;;;;;22.00;64.40;;;;;;5035550;28;19944;-88
2022/06/09 05:32:56;;;;;;;;;;;22.00;64.20;;;;;;5035389;28;19928;-88
2022/06/09 05:35:22;;;;;;;;;;;21.90;64.00;;;;;;5035486;28;20338;-88
2022/06/09 05:46:04;;;;;;;;;;;21.90;63.90;;;;;;5036524;28;19963;-87
2022/06/09 05:48:29;;;;;;;;;;;22.00;64.20;;;;;;5023118;28;19918;-85
2022/06/09 05:50:55;;;;;;;;;;;22.00;64.30;;;;;;5028231;28;20352;-88
2022/06/09 05:53:21;;;;;;;;;;;22.10;63.90;;;;;;5023995;28;19936;-86
2022/06/09 05:55:46;;;;;;;;;;;22.10;63.90;;;;;;5020334;28;20380;-86
2022/06/09 05:58:12;;;;;;;;;;;22.10;63.90;;;;;;5035567;28;19917;-87
2022/06/09 06:00:38;;;;;;;;;;;22.10;63.60;;;;;;5025436;28;20476;-87
2022/06/09 06:03:04;;;;;;;;;;;22.20;63.70;;;;;;5023793;28;19916;-87
2022/06/09 06:08:14;;;;;;;;;;;22.30;63.60;;;;;;5035173;28;19923;-87
2022/06/09 06:10:39;;;;;;;;;;;22.30;63.50;;;;;;5035485;28;19913;-87
2022/06/09 06:13:05;;;;;;;;;;;22.40;63.70;;;;;;5023986;28;19995;-87
2022/06/09 06:15:31;;;;;;;;;;;22.50;63.70;;;;;;5025820;28;19921;-87
2022/06/09 06:17:57;;;;;;;;;;;22.70;63.60;;;;;;5020340;28;19917;-87
2022/06/09 06:20:23;;;;;;;;;;;22.80;63.70;;;;;;5018225;28;20024;-87
2022/06/09 06:22:48;;;;;;;;;;;22.90;63.70;;;;;;5035460;28;20258;-86
2022/06/09 06:25:14;;;;;;;;;;;23.00;63.70;;;;;;5034531;28;20369;-87
2022/06/09 06:27:39;;;;;;;;;;;23.20;63.90;;;;;;5022278;28;20020;-86
2022/06/09 06:30:06;;;;;;;;;;;23.30;63.70;;;;;;5035519;28;19917;-87
2022/06/09 06:32:31;;;;;;;;;;;23.50;63.50;;;;;;5034958;28;19929;-87
2022/06/09 06:34:57;;;;;;;;;;;23.60;63.60;;;;;;5026263;28;19921;-87
2022/06/09 06:37:23;;;;;;;;;;;23.70;63.40;;;;;;5025540;28;19913;-87
2022/06/09 06:39:49;;;;;;;;;;;23.80;62.80;;;;;;5016845;28;19917;-86
2022/06/09 06:42:15;;;;;;;;;;;24.00;62.60;;;;;;5034556;28;20377;-86
2022/06/09 06:44:40;;;;;;;;;;;24.00;62.50;;;;;;5016816;28;20249;-86
2022/06/09 06:47:06;;;;;;;;;;;24.10;62.40;;;;;;5024054;28;19913;-86
2022/06/09 06:49:31;;;;;;;;;;;24.10;62.10;;;;;;5021598;28;19925;-86
2022/06/09 06:51:57;;;;;;;;;;;24.10;62.40;;;;;;5021518;28;19921;-86
2022/06/09 06:54:22;;;;;;;;;;;24.10;62.50;;;;;;5019165;28;20362;-87
2022/06/09 06:56:47;;;;;;;;;;;24.20;62.20;;;;;;5034466;28;19929;-87
2022/06/09 06:59:13;;;;;;;;;;;24.20;62.50;;;;;;5025052;28;19917;-86
2022/06/09 07:01:38;;;;;;;;;;;24.30;62.60;;;;;;5034884;28;20413;-87
2022/06/09 07:04:04;;;;;;;;;;;24.50;62.90;;;;;;5035355;28;20010;-87
2022/06/09 07:06:30;;;;;;;;;;;24.70;63.10;;;;;;5016759;28;19917;-88
2022/06/09 07:08:55;;;;;;;;;;;24.90;63.40;;;;;;5033900;28;19924;-87
2022/06/09 07:11:21;;;;;;;;;;;25.20;63.00;;;;;;5033242;28;20310;-87
2022/06/09 07:13:46;;;;;;;;;;;25.30;62.30;;;;;;5013508;28;19927;-87
2022/06/09 07:16:12;;;;;;;;;;;25.50;62.40;;;;;;5015523;28;19921;-87
2022/06/09 07:18:38;;;;;;;;;;;25.80;62.20;;;;;;5032069;28;20277;-87
2022/06/09 07:21:04;;;;;;;;;;;25.80;62.10;;;;;;5030802;28;19917;-87
2022/06/09 07:23:30;;;;;;;;;;;25.90;61.40;;;;;;5031153;28;19931;-88
2022/06/09 07:25:56;;;;;;;;;;;25.90;60.00;;;;;;5029842;28;20292;-87
2022/06/09 07:28:22;;;;;;;;;;;26.00;59.20;;;;;;5021725;28;20028;-88
2022/06/09 07:30:48;;;;;;;;;;;26.00;59.50;;;;;;5031107;28;19913;-87
2022/06/09 07:33:13;;;;;;;;;;;26.10;59.70;;;;;;5019548;28;19925;-87
2022/06/09 07:35:39;;;;;;;;;;;26.20;59.10;;;;;;5019038;28;19921;-88
2022/06/09 07:38:06;;;;;;;;;;;26.20;57.70;;;;;;5030465;28;20373;-88
2022/06/09 07:40:33;;;;;;;;;;;26.20;58.90;;;;;;5013822;28;19921;-88
2022/06/09 07:42:58;;;;;;;;;;;26.20;58.60;;;;;;5012429;28;19918;-88
2022/06/09 07:45:24;;;;;;;;;;;26.10;58.80;;;;;;5033163;28;19917;-87
2022/06/09 07:47:50;;;;;;;;;;;26.20;57.40;;;;;;5031227;28;19917;-87
2022/06/09 07:50:15;;;;;;;;;;;26.30;57.80;;;;;;5021291;28;19921;-88
2022/06/09 07:52:41;;;;;;;;;;;26.50;58.40;;;;;;5031395;28;20288;-87
2022/06/09 07:55:08;;;;;;;;;;;26.80;58.80;;;;;;5031694;28;19976;-87
2022/06/09 07:57:33;;;;;;;;;;;27.10;58.00;;;;;;5031380;28;19966;-86
2022/06/09 07:59:59;;;;;;;;;;;27.20;57.50;;;;;;5019063;28;19917;-86
2022/06/09 08:02:25;;;;;;;;;;;27.40;56.80;;;;;;5031102;28;20384;-86
2022/06/09 08:04:51;;;;;;;;;;;27.60;57.90;;;;;;5021251;28;20007;-86
2022/06/09 08:07:16;;;;;;;;;;;28.00;58.40;;;;;;5019050;28;20039;-86
2022/06/09 08:09:43;;;;;;;;;;;28.60;59.70;;;;;;5031514;28;19985;-87
2022/06/09 08:12:08;;;;;;;;;;;29.10;58.40;;;;;;5021724;28;19944;-86
2022/06/09 08:14:34;;;;;;;;;;;29.50;56.60;;;;;;5032088;28;19959;-86
2022/06/09 08:16:59;;;;;;;;;;;29.70;54.70;;;;;;5022437;28;19923;-86
2022/06/09 08:19:25;;;;;;;;;;;29.80;53.90;;;;;;5020819;28;19925;-86
2022/06/09 08:21:51;;;;;;;;;;;29.90;53.60;;;;;;5019759;28;19923;-87
2022/06/09 08:24:16;;;;;;;;;;;30.00;51.90;;;;;;5031679;28;20190;-87
2022/06/09 08:26:42;;;;;;;;;;;30.20;52.50;;;;;;5014688;28;19928;-87
2022/06/09 08:29:08;;;;;;;;;;;30.30;51.30;;;;;;5021492;28;19924;-87
2022/06/09 08:31:33;;;;;;;;;;;30.70;53.10;;;;;;5030775;28;19921;-87
2022/06/09 08:33:59;;;;;;;;;;;31.00;49.60;;;;;;5020506;28;20428;-87
2022/06/09 08:36:24;;;;;;;;;;;31.30;50.00;;;;;;5030330;28;19917;-87
2022/06/09 08:38:51;;;;;;;;;;;31.70;48.90;;;;;;5014847;28;19968;-87
2022/06/09 08:41:33;;;;;;;;;;;31.80;48.60;;;;;;5031620;28;19956;-86
2022/06/09 08:44:01;;;;;;;;;;;31.90;47.20;;;;;;5017714;28;19921;-87
2022/06/09 08:46:38;;;;;;;;;;;31.80;46.60;;;;;;5016954;28;19921;-86
2022/06/09 08:49:09;;;;;;;;;;;31.80;46.30;;;;;;5029717;28;20641;-86
2022/06/09 08:51:42;;;;;;;;;;;32.10;46.80;;;;;;5014944;28;20408;-86
2022/06/09 08:54:14;;;;;;;;;;;32.60;48.60;;;;;;5012415;28;20047;-86
2022/06/09 08:56:40;;;;;;;;;;;33.30;48.00;;;;;;5012376;28;19913;-87
2022/06/09 08:59:12;;;;;;;;;;;34.00;44.40;;;;;;5030193;28;20341;-87
2022/06/09 09:01:53;;;;;;;;;;;34.70;44.00;;;;;;5029459;28;19921;-86
2022/06/09 09:04:18;;;;;;;;;;;35.30;43.20;;;;;;5014929;28;20388;-86
2022/06/09 09:06:49;;;;;;;;;;;35.80;43.20;;;;;;5030845;28;19917;-86
2022/06/09 09:09:14;;;;;;;;;;;36.40;41.20;;;;;;5018890;28;20451;-85
2022/06/09 09:11:58;;;;;;;;;;;36.90;39.70;;;;;;5031005;28;19967;-87
2022/06/09 09:14:28;;;;;;;;;;;37.50;39.30;;;;;;5018774;28;19921;-86
2022/06/09 09:17:12;;;;;;;;;;;37.80;37.30;;;;;;5014879;28;19917;-86
2022/06/09 09:19:53;;;;;;;;;;;38.00;36.50;;;;;;5018151;28;19921;-85
2022/06/09 09:22:38;;;;;;;;;;;38.20;35.80;;;;;;5031454;28;19917;-85
2022/06/09 09:25:06;;;;;;;;;;;38.60;36.10;;;;;;5018360;28;19921;-85
2022/06/09 09:27:39;;;;;;;;;;;39.00;34.40;;;;;;5029207;28;19968;-86
2022/06/09 09:30:10;;;;;;;;;;;39.40;32.90;;;;;;5027057;28;20537;-85
2022/06/09 09:32:40;;;;;;;;;;;39.80;30.70;;;;;;5033661;28;19921;-86
2022/06/09 09:35:14;;;;;;;;;;;39.90;31.20;;;;;;5018818;28;20015;-88
2022/06/09 09:37:44;;;;;;;;;;;40.30;30.40;;;;;;5022346;28;19913;-87
2022/06/09 09:40:19;;;;;;;;;;;40.50;29.10;;;;;;5032936;28;19932;-87
2022/06/09 09:42:45;;;;;;;;;;;40.60;28.50;;;;;;5032798;28;20388;-87
2022/06/09 09:45:11;;;;;;;;;;;40.80;28.30;;;;;;5024295;28;20296;-87
2022/06/09 09:47:42;;;;;;;;;;;40.90;28.10;;;;;;5032734;28;19970;-87
2022/06/09 09:50:18;;;;;;;;;;;41.20;27.10;;;;;;5032465;28;19925;-87
2022/06/09 09:52:46;;;;;;;;;;;41.50;26.80;;;;;;5023903;28;20027;-87
2022/06/09 09:55:30;;;;;;;;;;;41.80;26.00;;;;;;5018332;28;19922;-87
2022/06/09 09:58:14;;;;;;;;;;;42.30;25.40;;;;;;5022604;28;19913;-87
2022/06/09 10:00:39;;;;;;;;;;;42.60;25.40;;;;;;5032161;28;20016;-87
2022/06/09 10:08:45;;;;;;;;;;;42.70;23.70;;;;;;5032885;28;19971;-87
2022/06/09 10:14:01;;;;;;;;;;;43.00;23.60;;;;;;5032753;28;19931;-87
2022/06/09 10:16:28;;;;;;;;;;;43.00;23.70;;;;;;5022457;28;20320;-87
2022/06/09 10:18:54;;;;;;;;;;;42.80;23.40;;;;;;5018690;28;19956;-88
2022/06/09 10:21:20;;;;;;;;;;;42.70;23.10;;;;;;5022279;28;19923;-87
2022/06/09 10:23:59;;;;;;;;;;;42.50;23.30;;;;;;5032323;28;19917;-87
2022/06/09 10:26:27;;;;;;;;;;;42.70;23.60;;;;;;5026822;28;20011;-87
2022/06/09 10:28:53;;;;;;;;;;;43.20;22.30;;;;;;5033232;28;19921;-88
2022/06/09 10:31:19;;;;;;;;;;;43.60;21.30;;;;;;5017141;28;19913;-88
2022/06/09 10:33:52;;;;;;;;;;;43.40;21.40;;;;;;5032446;28;19921;-87
2022/06/09 10:36:23;;;;;;;;;;;43.10;21.50;;;;;;5021476;28;20459;-88
2022/06/09 10:39:09;;;;;;;;;;;42.30;21.50;;;;;;5032325;28;19921;-87
2022/06/09 10:41:40;;;;;;;;;;;41.50;22.40;;;;;;5023759;28;19950;-88
2022/06/09 10:44:10;;;;;;;;;;;40.80;22.70;;;;;;5020206;28;19917;-87
2022/06/09 10:55:28;;;;;;;;;;;42.20;22.00;;;;;;5032028;28;19970;-88
2022/06/09 10:58:04;;;;;;;;;;;42.70;21.40;;;;;;5017326;28;19933;-88
2022/06/09 11:00:32;;;;;;;;;;;43.20;20.80;;;;;;5033583;28;19913;-88
2022/06/09 11:02:59;;;;;;;;;;;43.80;20.30;;;;;;5027921;28;19921;-87
2022/06/09 11:05:35;;;;;;;;;;;44.30;20.10;;;;;;5032381;28;19995;-87
2022/06/09 11:08:13;;;;;;;;;;;44.70;19.80;;;;;;5031770;28;20701;-88
2022/06/09 11:10:49;;;;;;;;;;;44.10;18.90;;;;;;5032129;28;20370;-88
2022/06/09 11:13:40;;;;;;;;;;;43.10;18.90;;;;;;5023288;28;19925;-88
2022/06/09 11:16:26;;;;;;;;;;;42.20;19.70;;;;;;5028747;28;19955;-88
2022/06/09 11:19:10;;;;;;;;;;;41.30;20.40;;;;;;5040252;28;19916;-87
2022/06/09 11:21:35;;;;;;;;;;;40.60;21.20;;;;;;5031868;28;19917;-88
2022/06/09 11:24:10;;;;;;;;;;;40.00;21.70;;;;;;5022944;28;19917;-88
2022/06/09 11:27:15;;;;;;;;;;;39.50;22.20;;;;;;5025751;28;19923;-88
2022/06/09 11:29:44;;;;;;;;;;;39.10;22.60;;;;;;4933681;29;19930;-88
2022/06/09 11:32:32;;;;;;;;;;;38.70;22.70;;;;;;4933911;29;19922;-88
2022/06/09 11:35:03;;;;;;;;;;;38.40;22.70;;;;;;4968584;28;19925;-88
2022/06/09 11:37:40;;;;;;;;;;;38.30;22.80;;;;;;5026658;28;19913;-88
2022/06/09 11:40:14;;;;;;;;;;;38.10;23.10;;;;;;5029945;28;19921;-87
2022/06/09 11:43:00;;;;;;;;;;;37.80;23.30;;;;;;5032431;28;19913;-88
2022/06/09 11:45:30;;;;;;;;;;;37.70;23.30;;;;;;5001965;28;19928;-88
2022/06/09 11:47:57;;;;;;;;;;;37.50;23.40;;;;;;5018815;28;19913;-87
2022/06/09 11:50:24;;;;;;;;;;;37.20;23.70;;;;;;5022586;28;19917;-88
2022/06/09 11:52:50;;;;;;;;;;;36.80;23.70;;;;;;5020800;28;20360;-87
2022/06/09 11:55:27;;;;;;;;;;;36.50;24.10;;;;;;5016092;28;19918;-87
2022/06/09 11:57:53;;;;;;;;;;;36.10;24.30;;;;;;5020820;28;19939;-87
2022/06/09 12:00:18;;;;;;;;;;;35.80;24.60;;;;;;5021422;28;19921;-87
2022/06/09 12:03:03;;;;;;;;;;;35.50;24.70;;;;;;5018866;28;20022;-89
2022/06/09 12:05:33;;;;;;;;;;;35.10;25.10;;;;;;5029555;28;19967;-88
2022/06/09 12:08:16;;;;;;;;;;;34.70;25.60;;;;;;5030744;28;19996;-88
2022/06/09 12:10:55;;;;;;;;;;;34.50;26.00;;;;;;5037055;28;19921;-88
2022/06/09 12:13:33;;;;;;;;;;;34.40;26.30;;;;;;5030717;28;19991;-88
2022/06/09 12:15:59;;;;;;;;;;;34.40;26.60;;;;;;5019180;28;19928;-88
2022/06/09 12:18:45;;;;;;;;;;;34.70;26.40;;;;;;5021535;28;19913;-88
2022/06/09 12:21:25;;;;;;;;;;;34.70;26.40;;;;;;5031448;28;19924;-86
2022/06/09 12:23:50;;;;;;;;;;;34.50;26.70;;;;;;5028792;28;19917;-88
2022/06/09 12:26:18;;;;;;;;;;;34.40;26.80;;;;;;5030545;28;20471;-88
2022/06/09 12:28:49;;;;;;;;;;;34.40;26.90;;;;;;5014775;28;20206;-88
2022/06/09 12:31:23;;;;;;;;;;;34.40;27.00;;;;;;5016877;28;20278;-87
2022/06/09 12:34:08;;;;;;;;;;;34.40;27.20;;;;;;5037413;28;19982;-88
2022/06/09 12:36:52;;;;;;;;;;;34.30;27.30;;;;;;5017255;28;19921;-87
2022/06/09 12:39:23;;;;;;;;;;;34.20;27.10;;;;;;5031774;28;19952;-87
2022/06/09 12:42:05;;;;;;;;;;;34.00;27.50;;;;;;5036087;28;19917;-87
2022/06/09 12:44:31;;;;;;;;;;;34.00;27.60;;;;;;5020312;28;19917;-87
2022/06/09 12:47:03;;;;;;;;;;;33.90;27.60;;;;;;5018944;28;19925;-86
2022/06/09 12:49:36;;;;;;;;;;;33.70;27.40;;;;;;5017782;28;20349;-87
2022/06/09 12:52:03;;;;;;;;;;;33.50;27.50;;;;;;5031850;28;19972;-86
2022/06/09 12:54:30;;;;;;;;;;;33.40;27.60;;;;;;5032496;28;20277;-87
2022/06/09 12:57:01;;;;;;;;;;;33.20;27.80;;;;;;5024691;28;19917;-87
2022/06/09 12:59:26;;;;;;;;;;;33.10;27.90;;;;;;5031913;28;19953;-87
2022/06/09 13:02:10;;;;;;;;;;;33.00;28.20;;;;;;5031003;28;19948;-86
2022/06/09 13:04:41;;;;;;;;;;;33.00;28.50;;;;;;5031972;28;20011;-87
2022/06/09 13:07:18;;;;;;;;;;;32.80;28.70;;;;;;5030835;28;19932;-87
2022/06/09 13:09:57;;;;;;;;;;;32.80;28.80;;;;;;5021900;28;20476;-87
2022/06/09 13:15:08;;;;;;;;;;;32.60;28.70;;;;;;5035493;28;20475;-87
2022/06/09 13:17:35;;;;;;;;;;;32.20;29.50;;;;;;5034576;28;19918;-88
2022/06/09 13:20:05;;;;;;;;;;;31.40;34.60;;;;;;5024875;28;19917;-87
2022/06/09 13:22:32;;;;;;;;;;;30.30;42.50;;;;;;5036111;28;19921;-89
2022/06/09 13:24:58;;;;;;;;;;;29.10;45.30;;;;;;5026400;28;20456;-87
2022/06/09 13:27:25;;;;;;;;;;;27.50;49.40;;;;;;5028310;28;19944;-88
2022/06/09 13:30:03;;;;;;;;;;;26.30;52.30;;;;;;5027606;28;19917;-88
2022/06/09 13:32:37;;;;;;;;;;;25.40;53.70;;;;;;5021941;28;20034;-89
2022/06/09 13:35:22;;;;;;;;;;;24.80;55.80;;;;;;5036317;28;19955;-87
2022/06/09 13:37:59;;;;;;;;;;;24.20;57.10;;;;;;4998537;28;20342;-88
2022/06/09 13:40:25;;;;;;;;;;;23.80;58.20;;;;;;5027491;28;19947;-88
2022/06/09 13:43:01;;;;;;;;;;;23.40;59.70;;;;;;5037240;28;19920;-89
2022/06/09 13:45:29;;;;;;;;;;;23.20;60.30;;;;;;5036540;28;19939;-88
2022/06/09 13:48:07;;;;;;;;;;;23.00;61.10;;;;;;5018703;28;20439;-88
2022/06/09 13:50:38;;;;;;;;;;;22.80;61.90;;;;;;5019197;28;19923;-88
2022/06/09 13:53:15;;;;;;;;;;;22.70;62.60;;;;;;5035735;28;19923;-88
2022/06/09 13:55:41;;;;;;;;;;;22.60;63.30;;;;;;5023688;28;20008;-90
2022/06/09 13:58:12;;;;;;;;;;;22.50;63.70;;;;;;5027794;28;19948;-88
2022/06/09 14:00:58;;;;;;;;;;;22.40;63.90;;;;;;5009129;28;19925;-89
2022/06/09 14:03:28;;;;;;;;;;;22.40;64.70;;;;;;5024679;28;20305;-88
2022/06/09 14:05:56;;;;;;;;;;;22.40;64.70;;;;;;5035855;28;19960;-88
2022/06/09 14:08:22;;;;;;;;;;;22.50;65.00;;;;;;5035830;28;20345;-88
2022/06/09 14:10:48;;;;;;;;;;;22.50;65.20;;;;;;5024737;28;20016;-88
2022/06/09 14:13:14;;;;;;;;;;;22.60;65.30;;;;;;5028336;28;20452;-88
2022/06/09 14:15:41;;;;;;;;;;;22.70;65.70;;;;;;5021584;28;19913;-88
2022/06/09 14:18:08;;;;;;;;;;;22.80;65.70;;;;;;5035682;28;20341;-88
2022/06/09 14:20:34;;;;;;;;;;;22.90;66.00;;;;;;5035500;28;19917;-88
2022/06/09 14:23:00;;;;;;;;;;;23.00;65.80;;;;;;5025445;28;19913;-88
2022/06/09 14:25:26;;;;;;;;;;;23.20;66.40;;;;;;5027513;28;20389;-88
2022/06/09 14:27:51;;;;;;;;;;;23.50;66.40;;;;;;5036344;28;19909;-88
2022/06/09 14:30:18;;;;;;;;;;;23.70;66.60;;;;;;5036693;28;19917;-88
2022/06/09 14:32:45;;;;;;;;;;;23.90;67.00;;;;;;5026014;28;19921;-88
2022/06/09 14:35:18;;;;;;;;;;;24.20;66.90;;;;;;5035049;28;19935;-88
2022/06/09 14:37:45;;;;;;;;;;;24.30;66.70;;;;;;5031711;28;19947;-89
2022/06/09 14:40:19;;;;;;;;;;;24.50;66.80;;;;;;5033522;28;19971;-88
2022/06/09 14:42:45;;;;;;;;;;;24.70;67.00;;;;;;5020939;28;19924;-88
2022/06/09 14:45:11;;;;;;;;;;;25.10;67.20;;;;;;5029627;28;19921;-88
2022/06/09 14:47:37;;;;;;;;;;;25.40;66.60;;;;;;5034146;28;20636;-88
2022/06/09 14:50:03;;;;;;;;;;;25.80;66.60;;;;;;5032452;28;19918;-88
2022/06/09 14:52:28;;;;;;;;;;;26.10;66.40;;;;;;5016607;28;20301;-89
2022/06/09 14:54:54;;;;;;;;;;;26.30;65.70;;;;;;5022264;28;20023;-89
2022/06/09 14:57:20;;;;;;;;;;;26.40;65.00;;;;;;5021785;28;19924;-89